Time;durP1;ratioP1;P1;durP2;ratioP2;P2;SDS_P1;SDS_P2;PMS_P1;PMS_P2;Temp;Humidity;BMP_temperature;BMP_pressure;BME280_temperature;BME280_humidity;BME280_pressure;Samples;Min_cycle;Max_cycle;Signal;HPM_P1;HPM_P2
2023/01/18 00:13:48;;;;;;;117.80;61.60;;;0.40;99.90;;;;;;5815642;24;20193;-84
2023/01/18 01:29:25;;;;;;;76.20;44.30;;;1.40;99.90;;;;;;6139200;22;20258;-83
2023/01/18 01:55:00;;;;;;;79.10;44.37;;;1.40;99.90;;;;;;5914074;23;20260;-83
2023/01/18 02:30:32;;;;;;;74.57;41.30;;;1.50;99.90;;;;;;5895593;23;20428;-86
2023/01/18 02:56:11;;;;;;;61.63;34.20;;;1.70;99.90;;;;;;5893915;23;20330;-82
2023/01/18 03:21:39;;;;;;;62.87;33.03;;;1.70;99.90;;;;;;5945170;23;20167;-84
2023/01/18 03:46:24;;;;;;;44.93;19.97;;;2.00;99.90;;;;;;5908452;23;20529;-82
2023/01/18 04:07:04;;;;;;;32.63;14.70;;;2.20;99.90;;;;;;5819316;23;20215;-83
2023/01/18 04:27:24;;;;;;;44.73;21.97;;;2.50;99.90;;;;;;6035120;23;20386;-84
2023/01/18 04:57:56;;;;;;;38.50;19.37;;;2.60;99.90;;;;;;6056611;23;20596;-81
2023/01/18 05:07:45;;;;;;;42.73;22.20;;;2.70;99.90;;;;;;6135266;22;20236;-84
2023/01/18 05:17:52;;;;;;;45.37;21.53;;;2.70;99.90;;;;;;6181064;22;20211;-83
2023/01/18 05:48:12;;;;;;;39.43;19.07;;;2.70;99.90;;;;;;5939153;23;20184;-84
2023/01/18 06:13:32;;;;;;;33.17;16.23;;;2.70;99.90;;;;;;5759419;24;20181;-82
2023/01/18 06:38:30;;;;;;;19.93;11.13;;;2.60;99.90;;;;;;5699077;24;20487;-80
2023/01/18 06:59:28;;;;;;;24.40;12.27;;;2.70;99.90;;;;;;5735106;24;20213;-84
2023/01/18 07:29:40;;;;;;;21.20;10.70;;;2.80;99.90;;;;;;5970834;23;20164;-82
2023/01/18 07:50:12;;;;;;;9.23;5.33;;;2.90;99.90;;;;;;5894399;23;20174;-83
2023/01/18 08:40:34;;;;;;;7.43;5.57;;;2.90;99.90;;;;;;5748649;24;20181;-83
2023/01/18 09:56:19;;;;;;;5.87;4.77;;;3.10;99.90;;;;;;5830630;24;20331;-82
2023/01/18 10:22:19;;;;;;;4.93;4.50;;;3.10;99.90;;;;;;5773510;24;20584;-82
2023/01/18 10:42:05;;;;;;;8.37;5.23;;;3.10;99.90;;;;;;5774046;24;20245;-82
2023/01/18 11:27:52;;;;;;;8.93;6.53;;;3.10;99.90;;;;;;5788950;24;20253;-81
2023/01/18 12:18:54;;;;;;;7.70;6.27;;;2.90;99.90;;;;;;5924101;23;20182;-85
2023/01/18 12:48:53;;;;;;;6.17;5.27;;;2.80;99.90;;;;;;6063850;23;20509;-84
2023/01/18 13:14:41;;;;;;;6.47;5.03;;;3.00;99.90;;;;;;5888792;24;20193;-85
2023/01/18 13:44:42;;;;;;;7.37;6.37;;;2.90;99.90;;;;;;5890102;24;20290;-83
2023/01/18 14:10:32;;;;;;;15.27;9.83;;;2.70;99.90;;;;;;5928303;24;20194;-84
2023/01/18 14:30:34;;;;;;;12.50;9.53;;;2.60;99.90;;;;;;5872036;24;20601;-86
2023/01/18 15:36:11;;;;;;;26.33;17.07;;;2.20;99.90;;;;;;5722018;24;21035;-83
2023/01/18 16:21:49;;;;;;;32.10;18.73;;;2.30;99.90;;;;;;5730844;24;20278;-82
2023/01/18 16:42:05;;;;;;;28.53;18.53;;;2.20;99.90;;;;;;5668946;24;20280;-84
2023/01/18 17:02:34;;;;;;;32.00;17.37;;;2.20;99.90;;;;;;5614789;24;20390;-83
2023/01/18 17:28:27;;;;;;;38.07;22.40;;;2.00;99.90;;;;;;5807529;24;20195;-82
2023/01/18 18:03:38;;;;;;;47.80;24.27;;;2.10;99.90;;;;;;5878992;24;20277;-82
2023/01/18 18:24:13;;;;;;;51.33;27.60;;;2.10;99.90;;;;;;5960954;23;20219;-82
2023/01/18 19:04:05;;;;;;;52.03;30.03;;;2.30;99.90;;;;;;5973343;23;20792;-80
2023/01/18 19:25:06;;;;;;;55.07;32.03;;;2.20;99.90;;;;;;5862326;24;20210;-82
2023/01/18 19:55:16;;;;;;;60.27;33.87;;;2.30;99.90;;;;;;5782364;24;20172;-83
2023/01/18 20:25:51;;;;;;;56.77;33.13;;;2.40;99.90;;;;;;5872676;24;20252;-83
2023/01/18 20:51:06;;;;;;;47.70;29.17;;;2.40;99.90;;;;;;5841406;24;20207;-83
2023/01/18 21:36:55;;;;;;;45.17;28.63;;;2.60;99.90;;;;;;5780399;24;20192;-83
2023/01/18 22:16:48;;;;;;;45.53;27.00;;;2.80;99.90;;;;;;5970578;23;20560;-86
2023/01/18 22:42:42;;;;;;;43.07;26.73;;;2.70;99.90;;;;;;6098951;23;20174;-86
2023/01/18 23:13:11;;;;;;;45.47;28.40;;;2.70;99.90;;;;;;6084800;22;20203;-83
